createdAt,value
2018-12-25T00:00:09.461Z,83.88
2018-12-25T00:01:09.451Z,83.85
2018-12-25T00:02:09.451Z,84.05
2018-12-25T00:03:09.413Z,83.82
2018-12-25T00:04:09.420Z,83.82
2018-12-25T00:05:09.454Z,83.8
2018-12-25T00:06:09.666Z,83.57
2018-12-25T00:07:09.444Z,83.55
2018-12-25T00:08:09.420Z,83.57
2018-12-25T00:09:09.528Z,83.79
2018-12-25T00:10:09.448Z,83.87
2018-12-25T00:11:09.422Z,83.83
2018-12-25T00:12:09.505Z,84.12
2018-12-25T00:13:09.377Z,83.8
2018-12-25T00:14:09.416Z,84.12
2018-12-25T00:15:09.537Z,83.89
2018-12-25T00:16:09.422Z,84.2
2018-12-25T00:17:09.450Z,84.44
2018-12-25T00:18:09.426Z,84.18
2018-12-25T00:19:09.428Z,84.59
2018-12-25T00:20:09.401Z,84.68
2018-12-25T00:21:09.444Z,84.51
2018-12-25T00:22:09.179Z,84.39
2018-12-25T00:23:09.651Z,84.27
2018-12-25T00:24:09.427Z,84.65
2018-12-25T00:25:09.388Z,84.83
2018-12-25T00:26:10.209Z,84.88
2018-12-25T00:27:09.627Z,84.6
2018-12-25T00:28:09.552Z,84.69
2018-12-25T00:29:09.724Z,84.84
2018-12-25T00:30:09.497Z,84.85
2018-12-25T00:31:09.442Z,84.93
2018-12-25T00:32:09.434Z,84.91
2018-12-25T00:33:09.531Z,84.91
2018-12-25T00:34:09.557Z,85.03
2018-12-25T00:35:09.434Z,84.5
2018-12-25T00:36:09.418Z,84.05
2018-12-25T00:37:09.884Z,84.43
2018-12-25T00:38:09.415Z,84.34
2018-12-25T00:39:09.403Z,84.3
2018-12-25T00:40:09.597Z,84.32
2018-12-25T00:41:09.547Z,84.08
2018-12-25T00:42:09.410Z,84.16
2018-12-25T00:43:09.662Z,83.89
2018-12-25T00:44:09.623Z,83.99
2018-12-25T00:45:09.547Z,83.82
2018-12-25T00:46:09.442Z,83.93
2018-12-25T00:47:09.379Z,83.97
2018-12-25T00:48:09.918Z,84
2018-12-25T00:49:14.653Z,84.13
2018-12-25T00:50:09.568Z,84.01
2018-12-25T00:51:09.370Z,84.1
2018-12-25T00:52:09.203Z,84.08
2018-12-25T00:53:09.556Z,83.96
2018-12-25T00:54:09.432Z,84.12
2018-12-25T00:55:09.657Z,84
2018-12-25T00:56:09.526Z,84
2018-12-25T00:57:09.762Z,83.99
2018-12-25T00:58:09.693Z,84.12
2018-12-25T00:59:09.444Z,84.25
2018-12-25T01:00:10.172Z,84.13
2018-12-25T01:01:09.564Z,84.04
2018-12-25T01:02:09.623Z,84.9
2018-12-25T01:03:09.575Z,84.85
2018-12-25T01:04:09.787Z,84.75
2018-12-25T01:05:09.328Z,84.63
2018-12-25T01:06:09.344Z,84.58
2018-12-25T01:07:09.960Z,84.58
2018-12-25T01:08:09.598Z,84.59
2018-12-25T01:09:09.361Z,84.81
2018-12-25T01:10:09.379Z,85.05
2018-12-25T01:11:09.460Z,84.4
2018-12-25T01:12:09.345Z,85.11
2018-12-25T01:13:09.352Z,85.4
2018-12-25T01:14:09.694Z,85.26
2018-12-25T01:15:09.750Z,85.05
2018-12-25T01:16:09.355Z,84.95
2018-12-25T01:17:09.313Z,85.21
2018-12-25T01:18:09.376Z,85.18
2018-12-25T01:19:09.700Z,85.18
2018-12-25T01:20:09.368Z,85.14
2018-12-25T01:21:09.332Z,85.04
2018-12-25T01:22:09.481Z,85.05
2018-12-25T01:23:10.148Z,84.72
2018-12-25T01:24:09.521Z,84.8
2018-12-25T01:25:09.371Z,85.08
2018-12-25T01:26:09.348Z,85.43
2018-12-25T01:27:09.343Z,85.23
2018-12-25T01:28:09.629Z,85.06
2018-12-25T01:29:09.534Z,84.89
2018-12-25T01:30:09.602Z,84.65
2018-12-25T01:31:09.651Z,84.89
2018-12-25T01:32:09.561Z,85.66
2018-12-25T01:33:09.493Z,85.99
2018-12-25T01:34:09.775Z,85.87
2018-12-25T01:35:10.122Z,85.69
2018-12-25T01:36:09.300Z,85.41
2018-12-25T01:37:09.576Z,85.31
2018-12-25T01:38:09.481Z,85.5
2018-12-25T01:39:09.295Z,85.45
2018-12-25T01:40:09.291Z,85.47
2018-12-25T01:41:09.287Z,85.43
2018-12-25T01:42:09.533Z,86.03
2018-12-25T01:43:09.360Z,85.96
2018-12-25T01:44:09.353Z,85.85
2018-12-25T01:45:09.367Z,85.46
2018-12-25T01:46:09.325Z,85.22
2018-12-25T01:47:09.280Z,85.2
2018-12-25T01:48:09.302Z,85.28
2018-12-25T01:49:09.324Z,85.71
2018-12-25T01:50:09.339Z,85.94
2018-12-25T01:51:09.379Z,85.7
2018-12-25T01:52:09.401Z,85.65
2018-12-25T01:53:09.307Z,85.66
2018-12-25T01:54:09.382Z,85.64
2018-12-25T01:55:09.323Z,85.76
2018-12-25T01:56:09.373Z,85.7
2018-12-25T01:57:09.368Z,85.66
2018-12-25T01:58:09.436Z,85.73
2018-12-25T01:59:09.418Z,85.74
2018-12-25T02:00:09.477Z,85.93
2018-12-25T02:01:09.325Z,85.45
2018-12-25T02:02:09.650Z,85.56
2018-12-25T02:03:09.568Z,85.53
2018-12-25T02:04:09.384Z,85.74
2018-12-25T02:05:09.391Z,85.42
2018-12-25T02:06:09.315Z,85.3
2018-12-25T02:07:09.634Z,85.11
2018-12-25T02:08:09.533Z,84.91
2018-12-25T02:09:09.441Z,85.25
2018-12-25T02:10:09.590Z,85.11
2018-12-25T02:11:09.689Z,85.04
2018-12-25T02:12:09.591Z,85.07
2018-12-25T02:13:09.468Z,84.93
2018-12-25T02:14:09.428Z,84.87
2018-12-25T02:15:09.328Z,84.93
2018-12-25T02:16:09.518Z,84.65
2018-12-25T02:17:09.375Z,84.82
2018-12-25T02:18:09.326Z,85.07
2018-12-25T02:19:09.968Z,84.9
2018-12-25T02:20:09.634Z,85.1
2018-12-25T02:21:09.411Z,85.72
2018-12-25T02:22:09.426Z,85.76
2018-12-25T02:23:09.266Z,85.46
2018-12-25T02:24:09.386Z,85.06
2018-12-25T02:25:09.344Z,85.52
2018-12-25T02:26:09.289Z,85.25
2018-12-25T02:27:09.780Z,85.37
2018-12-25T02:28:09.470Z,85.06
2018-12-25T02:29:09.692Z,84.83
2018-12-25T02:30:09.713Z,84.86
2018-12-25T02:31:09.367Z,84.88
2018-12-25T02:32:09.479Z,84.96
2018-12-25T02:33:09.454Z,84.88
2018-12-25T02:34:10.037Z,85.21
2018-12-25T02:35:09.518Z,85.05
2018-12-25T02:36:09.321Z,85.31
2018-12-25T02:37:09.635Z,85.77
2018-12-25T02:38:09.291Z,85.85
2018-12-25T02:39:09.540Z,85.75
2018-12-25T02:40:09.275Z,85.64
2018-12-25T02:41:09.202Z,85.51
2018-12-25T02:42:09.313Z,85.63
2018-12-25T02:43:09.683Z,85.84
2018-12-25T02:44:09.579Z,85.71
2018-12-25T02:45:09.297Z,85.71
2018-12-25T02:46:09.602Z,85.15
2018-12-25T02:47:09.492Z,85.6
2018-12-25T02:48:09.308Z,85.57
2018-12-25T02:49:09.374Z,85.65
2018-12-25T02:50:09.600Z,85.41
2018-12-25T02:51:09.748Z,85.36
2018-12-25T02:52:09.199Z,85.43
2018-12-25T02:53:09.327Z,85.08
2018-12-25T02:54:09.364Z,84.79
2018-12-25T02:55:09.241Z,85.07
2018-12-25T02:56:09.452Z,85.1
2018-12-25T02:57:09.581Z,85.07
2018-12-25T02:58:09.231Z,85.08
2018-12-25T02:59:09.289Z,84.85
2018-12-25T03:00:10.260Z,85.25
2018-12-25T03:01:09.403Z,85.22
2018-12-25T03:02:09.744Z,85.14
2018-12-25T03:03:09.229Z,85.01
2018-12-25T03:04:09.386Z,85.05
2018-12-25T03:05:09.195Z,84.78
2018-12-25T03:06:09.451Z,84.88
2018-12-25T03:07:09.530Z,84.9
2018-12-25T03:08:09.227Z,84.94
2018-12-25T03:09:09.273Z,84.94
2018-12-25T03:10:09.466Z,85.3
2018-12-25T03:11:09.191Z,85.42
2018-12-25T03:12:09.203Z,85.4
2018-12-25T03:13:09.241Z,85.15
2018-12-25T03:14:09.559Z,85.03
2018-12-25T03:15:09.241Z,84.96
2018-12-25T03:16:09.391Z,84.81
2018-12-25T03:17:09.188Z,84.57
2018-12-25T03:18:09.297Z,84.69
2018-12-25T03:19:09.491Z,84.73
2018-12-25T03:20:09.213Z,84.73
2018-12-25T03:21:09.146Z,84.74
2018-12-25T03:22:09.213Z,84.89
2018-12-25T03:23:09.391Z,84.8
2018-12-25T03:24:09.234Z,84.5
2018-12-25T03:25:09.132Z,84.55
2018-12-25T03:26:09.138Z,84.83
2018-12-25T03:27:09.178Z,84.94
2018-12-25T03:28:09.143Z,84.78
2018-12-25T03:29:09.135Z,84.75
2018-12-25T03:30:09.199Z,84.7
2018-12-25T03:31:09.149Z,84.7
2018-12-25T03:32:09.164Z,84.71
2018-12-25T03:33:09.181Z,84.73
2018-12-25T03:34:09.165Z,84.95
2018-12-25T03:35:09.277Z,84.97
2018-12-25T03:36:09.130Z,84.91
2018-12-25T03:37:09.168Z,85.04
2018-12-25T03:38:09.087Z,85.44
2018-12-25T03:39:09.140Z,85.4
2018-12-25T03:40:09.148Z,85.86
2018-12-25T03:41:09.541Z,85.65
2018-12-25T03:42:09.406Z,85.75
2018-12-25T03:43:09.469Z,85.71
2018-12-25T03:44:09.370Z,85.72
2018-12-25T03:45:09.424Z,85.58
2018-12-25T03:46:09.399Z,85.54
2018-12-25T03:47:09.557Z,85.4
2018-12-25T03:48:09.516Z,85.45
2018-12-25T03:49:09.592Z,85.4
2018-12-25T03:50:10.731Z,85.37
2018-12-25T03:51:09.357Z,85.31
2018-12-25T03:52:09.104Z,85.2
2018-12-25T03:53:09.693Z,85.25
2018-12-25T03:54:09.595Z,85.05
2018-12-25T03:55:09.099Z,84.95
2018-12-25T03:56:09.304Z,85.17
2018-12-25T03:57:09.214Z,84.96
2018-12-25T03:58:09.258Z,85.01
2018-12-25T03:59:09.089Z,84.88
2018-12-25T04:00:09.106Z,85
2018-12-25T04:01:09.112Z,85.2
2018-12-25T04:02:09.472Z,85.14
2018-12-25T04:03:09.484Z,85.02
2018-12-25T04:04:09.114Z,84.99
2018-12-25T04:05:09.118Z,84.86
2018-12-25T04:06:09.685Z,84.63
2018-12-25T04:07:09.570Z,84.81
2018-12-25T04:08:09.326Z,84.8
2018-12-25T04:09:09.168Z,85.17
2018-12-25T04:10:09.445Z,84.92
2018-12-25T04:11:09.170Z,85.03
2018-12-25T04:12:09.190Z,84.91
2018-12-25T04:13:09.241Z,84.85
2018-12-25T04:14:10.256Z,85.04
2018-12-25T04:15:09.210Z,85.15
2018-12-25T04:16:09.460Z,85.29
2018-12-25T04:17:09.078Z,85.05
2018-12-25T04:18:09.428Z,84.81
2018-12-25T04:19:09.151Z,85.05
2018-12-25T04:20:09.233Z,85.11
2018-12-25T04:21:09.310Z,85.16
2018-12-25T04:22:09.239Z,85.06
2018-12-25T04:23:09.149Z,85.02
2018-12-25T04:24:09.507Z,84.97
2018-12-25T04:25:09.311Z,85
2018-12-25T04:26:09.058Z,85
2018-12-25T04:27:09.057Z,84.97
2018-12-25T04:28:09.240Z,84.78
2018-12-25T04:29:09.335Z,84.97
2018-12-25T04:30:09.203Z,84.92
2018-12-25T04:31:09.194Z,84.97
2018-12-25T04:32:09.286Z,84.92
2018-12-25T04:33:09.033Z,85.15
2018-12-25T04:34:09.178Z,84.95
2018-12-25T04:35:09.336Z,84.7
2018-12-25T04:36:09.412Z,84.71
2018-12-25T04:37:09.577Z,84.66
2018-12-25T04:38:09.738Z,84.62
2018-12-25T04:39:09.260Z,84.72
2018-12-25T04:40:09.139Z,84.6
2018-12-25T04:41:09.244Z,84.81
2018-12-25T04:42:09.151Z,84.69
2018-12-25T04:43:09.021Z,84.52
2018-12-25T04:44:09.081Z,84.51
2018-12-25T04:45:09.226Z,84.55
2018-12-25T04:46:09.268Z,84.51
2018-12-25T04:47:09.237Z,84.38
2018-12-25T04:48:09.321Z,84.38
2018-12-25T04:49:09.452Z,84.38
2018-12-25T04:50:09.842Z,84.38
2018-12-25T04:51:09.219Z,84.34
2018-12-25T04:52:09.276Z,84.42
2018-12-25T04:53:09.031Z,84.49
2018-12-25T04:54:09.289Z,84.44
2018-12-25T04:55:09.126Z,84.27
2018-12-25T04:56:09.503Z,84.39
2018-12-25T04:57:09.094Z,84.38
2018-12-25T04:58:09.261Z,84.24
2018-12-25T04:59:09.282Z,84.15
2018-12-25T05:00:09.118Z,84.21
2018-12-25T05:01:09.241Z,84.43
2018-12-25T05:02:09.048Z,84.46
2018-12-25T05:03:09.022Z,84.52
2018-12-25T05:04:10.138Z,84.28
2018-12-25T05:05:09.057Z,84.54
2018-12-25T05:06:09.238Z,84.51
2018-12-25T05:07:09.094Z,84.58
2018-12-25T05:08:09.003Z,84.66
2018-12-25T05:09:09.034Z,84.53
2018-12-25T05:10:09.017Z,84.47
2018-12-25T05:11:09.003Z,84.42
2018-12-25T05:12:09.116Z,84.58
2018-12-25T05:13:09.355Z,84.84
2018-12-25T05:14:09.018Z,84.57
2018-12-25T05:15:09.049Z,84.65
2018-12-25T05:16:09.009Z,84.58
2018-12-25T05:17:09.040Z,84.6
2018-12-25T05:18:09.196Z,84.68
2018-12-25T05:19:08.960Z,84.58
2018-12-25T05:20:09.108Z,84.54
2018-12-25T05:21:09.129Z,84.74
2018-12-25T05:22:09.039Z,84.64
2018-12-25T05:23:09.094Z,84.64
2018-12-25T05:24:09.306Z,84.62
2018-12-25T05:25:09.229Z,84.52
2018-12-25T05:26:09.174Z,84.57
2018-12-25T05:27:09.505Z,84.7
2018-12-25T05:28:09.046Z,84.76
2018-12-25T05:29:09.047Z,84.67
2018-12-25T05:30:09.140Z,84.46
2018-12-25T05:31:08.973Z,84.46
2018-12-25T05:32:09.580Z,84.25
2018-12-25T05:33:08.943Z,84.5
2018-12-25T05:34:09.520Z,84.41
2018-12-25T05:35:09.020Z,84.43
2018-12-25T05:36:09.371Z,84.43
2018-12-25T05:37:09.222Z,84.45
2018-12-25T05:38:08.998Z,84.47
2018-12-25T05:39:09.155Z,84.44
2018-12-25T05:40:10.030Z,84.6
2018-12-25T05:41:09.125Z,84.69
2018-12-25T05:42:09.433Z,84.65
2018-12-25T05:43:09.090Z,84.76
2018-12-25T05:44:09.220Z,84.79
2018-12-25T05:45:09.029Z,84.81
2018-12-25T05:46:10.178Z,84.81
2018-12-25T05:47:09.109Z,84.73
2018-12-25T05:48:09.126Z,84.65
2018-12-25T05:49:08.949Z,84.72
2018-12-25T05:50:08.978Z,84.29
2018-12-25T05:51:09.081Z,84.18
2018-12-25T05:52:09.039Z,84.14
2018-12-25T05:53:08.915Z,84.28
2018-12-25T05:54:09.123Z,84.45
2018-12-25T05:55:09.018Z,84.51
2018-12-25T05:56:09.314Z,84.41
2018-12-25T05:57:12.970Z,84.3
2018-12-25T05:58:09.213Z,84.09
2018-12-25T05:59:09.143Z,84.06
2018-12-25T06:00:09.226Z,84.24
2018-12-25T06:01:09.031Z,84.33
2018-12-25T06:02:09.090Z,84.22
2018-12-25T06:03:09.291Z,84.42
2018-12-25T06:04:09.082Z,84.37
2018-12-25T06:05:08.939Z,84.32
2018-12-25T06:06:08.935Z,84.15
2018-12-25T06:07:09.093Z,84.32
2018-12-25T06:08:09.130Z,84.45
2018-12-25T06:09:09.059Z,84.47
2018-12-25T06:10:08.935Z,84.63
2018-12-25T06:11:09.148Z,84.46
2018-12-25T06:12:09.151Z,84.5
2018-12-25T06:13:09.327Z,84.53
2018-12-25T06:14:09.104Z,84.35
2018-12-25T06:15:08.986Z,84.35
2018-12-25T06:16:09.266Z,84.25
2018-12-25T06:17:09.334Z,84.28
2018-12-25T06:18:09.288Z,84.26
2018-12-25T06:19:08.998Z,83.9
2018-12-25T06:20:09.190Z,84.05
2018-12-25T06:21:09.216Z,83.9
2018-12-25T06:22:08.999Z,83.68
2018-12-25T06:23:09.087Z,83.51
2018-12-25T06:24:09.766Z,83.57
2018-12-25T06:25:09.017Z,83.6
2018-12-25T06:26:09.075Z,83.54
2018-12-25T06:27:08.959Z,83.48
2018-12-25T06:28:09.259Z,83.52
2018-12-25T06:29:08.980Z,83.55
2018-12-25T06:30:08.942Z,83.66
2018-12-25T06:31:08.957Z,83.4
2018-12-25T06:32:09.742Z,83.53
2018-12-25T06:33:08.970Z,83.59
2018-12-25T06:34:08.975Z,83.72
2018-12-25T06:35:09.083Z,83.69
2018-12-25T06:36:09.588Z,83.68
2018-12-25T06:37:09.064Z,83.86
2018-12-25T06:38:09.298Z,83.78
2018-12-25T06:39:08.664Z,83.82
2018-12-25T06:40:09.434Z,83.85
2018-12-25T06:41:08.944Z,83.89
2018-12-25T06:42:08.995Z,83.87
2018-12-25T06:43:09.464Z,83.84
2018-12-25T06:44:09.077Z,83.85
2018-12-25T06:45:08.929Z,83.96
2018-12-25T06:46:08.965Z,84.11
2018-12-25T06:47:08.938Z,84.08
2018-12-25T06:48:08.937Z,84.03
2018-12-25T06:49:08.939Z,83.82
2018-12-25T06:50:08.879Z,83.79
2018-12-25T06:51:08.994Z,83.9
2018-12-25T06:52:08.992Z,83.76
2018-12-25T06:53:08.921Z,83.86
2018-12-25T06:54:08.970Z,83.83
2018-12-25T06:55:08.997Z,83.84
2018-12-25T06:56:08.944Z,83.86
2018-12-25T06:57:08.992Z,84.05
2018-12-25T06:58:08.932Z,84.05
2018-12-25T06:59:08.978Z,84.13
2018-12-25T07:00:09.254Z,84.1
2018-12-25T07:01:08.976Z,84.13
2018-12-25T07:02:08.843Z,84.08
2018-12-25T07:03:09.168Z,84.07
2018-12-25T07:04:08.897Z,84.06
2018-12-25T07:05:09.255Z,84.33
2018-12-25T07:06:08.935Z,84.3
2018-12-25T07:07:09.271Z,84.25
2018-12-25T07:08:09.066Z,84.4
2018-12-25T07:09:08.884Z,84.41
2018-12-25T07:10:09.113Z,84.38
2018-12-25T07:11:08.859Z,84.3
2018-12-25T07:12:08.920Z,84.21
2018-12-25T07:13:08.927Z,84.5
2018-12-25T07:14:09.017Z,84.43
2018-12-25T07:15:09.504Z,84.25
2018-12-25T07:16:08.876Z,84.21
2018-12-25T07:17:08.920Z,84.27
2018-12-25T07:18:09.209Z,84.33
2018-12-25T07:19:09.027Z,84.34
2018-12-25T07:20:09.292Z,84.67
2018-12-25T07:21:12.194Z,84.84
2018-12-25T07:22:08.999Z,84.84
2018-12-25T07:23:09.024Z,84.95
2018-12-25T07:24:09.680Z,85.1
2018-12-25T07:25:09.143Z,85.24
2018-12-25T07:26:08.884Z,85.47
2018-12-25T07:27:08.922Z,85.45
2018-12-25T07:28:08.979Z,85.5
2018-12-25T07:29:08.924Z,85.55
2018-12-25T07:30:09.231Z,85.52
2018-12-25T07:31:09.011Z,85.66
2018-12-25T07:32:09.444Z,85.67
2018-12-25T07:33:08.842Z,85.74
2018-12-25T07:34:09.203Z,85.62
2018-12-25T07:35:08.991Z,85.47
2018-12-25T07:36:09.489Z,85.56
2018-12-25T07:37:09.142Z,85.58
2018-12-25T07:38:09.117Z,85.49
2018-12-25T07:39:08.927Z,85.29
2018-12-25T07:40:09.217Z,85.34
2018-12-25T07:41:08.923Z,85.48
2018-12-25T07:42:08.943Z,85.39
2018-12-25T07:43:09.026Z,85.29
2018-12-25T07:44:08.930Z,85.26
2018-12-25T07:45:08.926Z,84.91
2018-12-25T07:46:08.925Z,84.93
2018-12-25T07:47:09.022Z,84.92
2018-12-25T07:48:08.919Z,84.85
2018-12-25T07:49:08.920Z,84.89
2018-12-25T07:50:08.942Z,84.92
2018-12-25T07:51:08.931Z,85.02
2018-12-25T07:52:08.801Z,84.85
2018-12-25T07:53:08.765Z,84.91
2018-12-25T07:54:08.849Z,84.82
2018-12-25T07:55:08.788Z,84.77
2018-12-25T07:56:09.092Z,84.73
2018-12-25T07:57:08.766Z,84.61
2018-12-25T07:58:08.973Z,84.72
2018-12-25T07:59:08.868Z,84.73
2018-12-25T08:00:08.890Z,84.78
2018-12-25T08:01:08.820Z,84.8
2018-12-25T08:02:08.864Z,84.96
2018-12-25T08:03:08.948Z,84.77
2018-12-25T08:04:08.787Z,84.73
2018-12-25T08:05:08.965Z,84.74
2018-12-25T08:06:08.971Z,84.73
2018-12-25T08:07:08.986Z,84.84
2018-12-25T08:08:08.944Z,84.69
2018-12-25T08:09:08.911Z,84.84
2018-12-25T08:10:08.782Z,85.04
2018-12-25T08:11:09.227Z,85.12
2018-12-25T08:12:08.980Z,85.25
2018-12-25T08:13:09.091Z,85.51
2018-12-25T08:14:08.950Z,85.37
2018-12-25T08:15:08.748Z,85.46
2018-12-25T08:16:09.136Z,85.5
2018-12-25T08:17:08.912Z,85.61
2018-12-25T08:18:09.052Z,85.93
2018-12-25T08:19:09.004Z,85.92
2018-12-25T08:20:08.961Z,85.8
2018-12-25T08:21:09.358Z,85.75
2018-12-25T08:22:08.811Z,85.62
2018-12-25T08:23:08.758Z,86
2018-12-25T08:24:08.711Z,86.12
2018-12-25T08:25:08.714Z,85.86
2018-12-25T08:26:08.924Z,86.25
2018-12-25T08:27:08.749Z,85.94
2018-12-25T08:28:08.736Z,86.19
2018-12-25T08:29:08.966Z,86.47
2018-12-25T08:30:08.901Z,86.44
2018-12-25T08:31:08.894Z,86.67
2018-12-25T08:32:08.737Z,86.73
2018-12-25T08:33:08.721Z,87.33
2018-12-25T08:34:08.748Z,87.18
2018-12-25T08:35:08.735Z,87.12
2018-12-25T08:36:08.739Z,87.08
2018-12-25T08:37:08.854Z,86.95
2018-12-25T08:38:08.892Z,86.82
2018-12-25T08:39:09.087Z,86.69
2018-12-25T08:40:08.940Z,87.32
2018-12-25T08:41:08.947Z,87.56
2018-12-25T08:42:09.107Z,87.73
2018-12-25T08:43:08.676Z,87.43
2018-12-25T08:44:08.754Z,87.27
2018-12-25T08:45:09.539Z,87.65
2018-12-25T08:46:08.702Z,88.03
2018-12-25T08:47:08.695Z,87.64
2018-12-25T08:48:09.415Z,88.24
2018-12-25T08:49:08.884Z,88.96
2018-12-25T08:50:08.968Z,89.08
2018-12-25T08:51:09.146Z,88.95
2018-12-25T08:52:08.865Z,88.22
2018-12-25T08:53:09.024Z,87.85
2018-12-25T08:54:09.128Z,88.22
2018-12-25T08:55:08.945Z,88.21
2018-12-25T08:56:09.002Z,87.9
2018-12-25T08:57:08.916Z,88.79
2018-12-25T08:58:08.685Z,88.12
2018-12-25T08:59:08.683Z,88.59
2018-12-25T09:00:09.495Z,88.09
2018-12-25T09:01:09.023Z,88.31
2018-12-25T09:02:08.768Z,88.35
2018-12-25T09:03:08.714Z,89.42
2018-12-25T09:04:08.751Z,88.88
2018-12-25T09:05:09.097Z,88.8
2018-12-25T09:06:09.513Z,88.77
2018-12-25T09:07:08.906Z,88.38
2018-12-25T09:08:08.710Z,88.71
2018-12-25T09:09:08.892Z,88.78
2018-12-25T09:10:08.718Z,88.87
2018-12-25T09:11:08.657Z,88.45
2018-12-25T09:12:09.020Z,88.92
2018-12-25T09:13:09.054Z,89.19
2018-12-25T09:14:08.718Z,88.87
2018-12-25T09:15:08.766Z,88.94
2018-12-25T09:16:08.946Z,88.49
2018-12-25T09:17:09.092Z,89.07
2018-12-25T09:18:08.680Z,88.69
2018-12-25T09:19:08.848Z,88.81
2018-12-25T09:20:09.066Z,88.62
2018-12-25T09:21:08.699Z,88.41
2018-12-25T09:22:08.670Z,89.1
2018-12-25T09:23:08.680Z,88.81
2018-12-25T09:24:08.760Z,88.67
2018-12-25T09:25:10.723Z,88.83
2018-12-25T09:26:08.974Z,88.55
2018-12-25T09:27:08.877Z,88.8
2018-12-25T09:28:09.011Z,88.5
2018-12-25T09:29:08.998Z,88.81
2018-12-25T09:30:09.000Z,88.58
2018-12-25T09:31:08.729Z,88.63
2018-12-25T09:32:09.236Z,88.7
2018-12-25T09:33:08.997Z,88.87
2018-12-25T09:34:08.688Z,88.84
2018-12-25T09:35:08.647Z,89.17
2018-12-25T09:36:08.649Z,88.88
2018-12-25T09:37:08.631Z,89.11
2018-12-25T09:38:08.680Z,89.53
2018-12-25T09:39:08.937Z,89.11
2018-12-25T09:40:08.451Z,89.29
2018-12-25T09:41:08.668Z,89.62
2018-12-25T09:42:09.388Z,89.38
2018-12-25T09:43:08.628Z,89.23
2018-12-25T09:44:08.700Z,89.39
2018-12-25T09:45:08.638Z,89.61
2018-12-25T09:46:08.805Z,89.45
2018-12-25T09:47:08.636Z,89.24
2018-12-25T09:48:13.212Z,88.83
2018-12-25T09:49:08.940Z,88.92
2018-12-25T09:50:09.230Z,89.09
2018-12-25T09:51:09.014Z,88.99
2018-12-25T09:52:08.883Z,88.98
2018-12-25T09:53:08.596Z,88.91
2018-12-25T09:54:08.646Z,88.32
2018-12-25T09:55:08.947Z,88.38
2018-12-25T09:57:08.607Z,88.65
2018-12-25T09:58:10.132Z,88.25
2018-12-25T09:59:08.761Z,88.36
2018-12-25T10:00:08.703Z,88.75
2018-12-25T10:01:08.610Z,88.86
2018-12-25T10:02:08.591Z,88.77
2018-12-25T10:03:08.593Z,88.45
2018-12-25T10:04:08.582Z,88.86
2018-12-25T10:05:08.944Z,89.13
2018-12-25T10:06:08.578Z,88.79
2018-12-25T10:07:08.572Z,88.52
2018-12-25T10:08:09.051Z,88.62
2018-12-25T10:09:08.638Z,88.59
2018-12-25T10:10:08.597Z,88.7
2018-12-25T10:11:08.930Z,88.27
2018-12-25T10:12:08.638Z,88.47
2018-12-25T10:13:08.541Z,88.31
2018-12-25T10:14:08.726Z,88.26
2018-12-25T10:15:08.951Z,88.45
2018-12-25T10:16:08.580Z,88.16
2018-12-25T10:17:08.949Z,88.27
2018-12-25T10:18:08.972Z,88.07
2018-12-25T10:19:09.927Z,88.17
2018-12-25T10:20:08.674Z,88.03
2018-12-25T10:21:08.805Z,88.14
2018-12-25T10:22:08.673Z,87.77
2018-12-25T10:23:08.592Z,87.49
2018-12-25T10:24:08.960Z,87.81
2018-12-25T10:25:08.890Z,87.73
2018-12-25T10:26:12.604Z,87.31
2018-12-25T10:27:09.030Z,87.79
2018-12-25T10:28:08.719Z,86.65
2018-12-25T10:29:08.888Z,86.88
2018-12-25T10:30:08.580Z,86.92
2018-12-25T10:31:08.684Z,86.77
2018-12-25T10:32:08.989Z,86.9
2018-12-25T10:33:08.688Z,87.18
2018-12-25T10:34:08.551Z,87.48
2018-12-25T10:35:08.536Z,87.79
2018-12-25T10:36:08.513Z,87.31
2018-12-25T10:37:08.613Z,87.21
2018-12-25T10:38:08.547Z,87.05
2018-12-25T10:39:09.059Z,86.55
2018-12-25T10:40:08.929Z,86.77
2018-12-25T10:41:08.638Z,86.82
2018-12-25T10:42:08.695Z,86.61
2018-12-25T10:43:08.709Z,86.62
2018-12-25T10:44:08.675Z,86.34
2018-12-25T10:45:08.704Z,86.34
2018-12-25T10:46:08.554Z,86.38
2018-12-25T10:47:08.525Z,86.32
2018-12-25T10:48:08.602Z,86.52
2018-12-25T10:49:08.861Z,86.6
2018-12-25T10:50:08.584Z,86.07
2018-12-25T10:51:08.750Z,86.02
2018-12-25T10:52:11.665Z,86.2
2018-12-25T10:53:08.547Z,85.94
2018-12-25T10:54:08.588Z,85.85
2018-12-25T10:55:08.643Z,85.4
2018-12-25T10:56:08.667Z,84.9
2018-12-25T10:57:08.810Z,85.07
2018-12-25T10:58:09.000Z,85.18
2018-12-25T10:59:09.312Z,85.03
2018-12-25T11:00:08.647Z,84.78
2018-12-25T11:01:08.645Z,85.43
2018-12-25T11:02:08.604Z,85.13
2018-12-25T11:03:08.756Z,85.34
2018-12-25T11:04:09.734Z,85.08
2018-12-25T11:06:13.414Z,85.2
2018-12-25T11:07:08.922Z,85.37
2018-12-25T11:08:08.638Z,85.54
2018-12-25T11:09:08.587Z,85.86
2018-12-25T11:10:08.532Z,85.68
2018-12-25T11:11:08.637Z,85.24
2018-12-25T11:12:09.345Z,85.18
2018-12-25T11:13:08.578Z,84.56
2018-12-25T11:14:08.556Z,84.47
2018-12-25T11:15:08.569Z,84.16
2018-12-25T11:16:08.950Z,84.27
2018-12-25T11:17:08.981Z,84.15
2018-12-25T11:18:08.627Z,83.96
2018-12-25T11:19:08.480Z,83.62
2018-12-25T11:20:11.494Z,83.43
2018-12-25T11:21:08.519Z,83.65
2018-12-25T11:22:09.322Z,83.07
2018-12-25T11:23:08.626Z,83.4
2018-12-25T11:24:08.805Z,83.31
2018-12-25T11:25:08.741Z,83.07
2018-12-25T11:26:08.742Z,83.57
2018-12-25T11:27:09.299Z,82.13
2018-12-25T11:28:08.522Z,82.19
2018-12-25T11:29:09.288Z,82.17
2018-12-25T11:30:08.558Z,82.35
2018-12-25T11:31:08.475Z,82.04
2018-12-25T11:32:08.625Z,81.8
2018-12-25T11:33:09.291Z,81.91
2018-12-25T11:34:08.912Z,81.63
2018-12-25T11:35:08.655Z,81.57
2018-12-25T11:36:08.503Z,81.21
2018-12-25T11:37:08.462Z,80.85
2018-12-25T11:38:08.528Z,80.79
2018-12-25T11:39:08.460Z,80.43
2018-12-25T11:40:08.700Z,80.87
2018-12-25T11:41:08.740Z,80.58
2018-12-25T11:42:08.497Z,80.91
2018-12-25T11:43:08.431Z,81.09
2018-12-25T11:44:08.460Z,80.91
2018-12-25T11:45:08.496Z,80.91
2018-12-25T11:46:08.503Z,80.63
2018-12-25T11:47:08.533Z,80.81
2018-12-25T11:48:08.467Z,80.83
2018-12-25T11:49:08.524Z,80.9
2018-12-25T11:50:08.504Z,80.85
2018-12-25T11:51:08.508Z,80.75
2018-12-25T11:52:08.457Z,80.32
2018-12-25T11:53:08.425Z,80.56
2018-12-25T11:54:08.450Z,80.69
2018-12-25T11:55:08.514Z,80.51
2018-12-25T11:56:08.409Z,80.84
2018-12-25T11:57:08.517Z,81.17
2018-12-25T11:58:08.617Z,80.17
2018-12-25T11:59:08.481Z,80.6
2018-12-25T12:00:08.586Z,79.6
2018-12-25T12:01:08.546Z,80.19
2018-12-25T12:02:16.834Z,80.47
2018-12-25T12:03:09.145Z,79.82
2018-12-25T12:04:15.571Z,79.74
2018-12-25T12:05:11.150Z,80.64
2018-12-25T12:06:09.726Z,80.8
2018-12-25T12:07:08.851Z,79.87
2018-12-25T12:08:08.627Z,80.49
2018-12-25T12:09:09.297Z,80.51
2018-12-25T12:10:09.839Z,80.44
2018-12-25T12:11:09.210Z,80.61
2018-12-25T12:12:08.403Z,80.97
2018-12-25T12:13:08.547Z,80.56
2018-12-25T12:14:08.399Z,80.75
2018-12-25T12:15:08.471Z,80.37
2018-12-25T12:16:08.395Z,80.71
2018-12-25T12:17:08.368Z,80.71
2018-12-25T12:18:08.566Z,79.74
2018-12-25T12:19:08.555Z,80.06
2018-12-25T12:20:08.740Z,80.32
2018-12-25T12:21:08.642Z,80.6
2018-12-25T12:22:08.911Z,80.08
2018-12-25T12:23:09.226Z,80.45
2018-12-25T12:24:08.619Z,79.7
2018-12-25T12:25:08.628Z,80.17
2018-12-25T12:26:08.606Z,79.94
2018-12-25T12:27:08.906Z,79.77
2018-12-25T12:28:08.605Z,80.39
2018-12-25T12:29:08.432Z,79.79
2018-12-25T12:30:08.836Z,78.84
2018-12-25T12:31:08.538Z,79.79
2018-12-25T12:32:09.469Z,79.79
2018-12-25T12:33:09.627Z,79.84
2018-12-25T12:34:13.250Z,79.51
2018-12-25T12:35:10.165Z,79.62
2018-12-25T12:36:12.013Z,79.35
2018-12-25T12:39:11.032Z,79.5
2018-12-25T12:40:09.223Z,79.58
2018-12-25T12:41:10.001Z,80.28
2018-12-25T12:42:09.146Z,79.83
2018-12-25T12:44:08.516Z,79.13
2018-12-25T12:45:10.378Z,78.45
2018-12-25T12:46:08.494Z,78.45
2018-12-25T12:47:11.795Z,77.94
2018-12-25T12:48:11.691Z,78.27
2018-12-25T12:49:33.670Z,78.94
2018-12-25T12:50:11.409Z,79.01
2018-12-25T12:51:09.641Z,79.09
2018-12-25T12:52:08.908Z,78.28
2018-12-25T12:53:09.005Z,79.08
2018-12-25T12:54:09.187Z,78.69
2018-12-25T12:55:12.615Z,78.42
2018-12-25T12:56:22.703Z,78.34
2018-12-25T12:57:12.235Z,77.88
2018-12-25T12:58:11.928Z,78.02
2018-12-25T12:59:13.067Z,77.58
2018-12-25T13:00:12.723Z,77.48